sensor_id;sensor_type;location;lat;lon;timestamp;P1;durP1;ratioP1;P2;durP2;ratioP2
19651;SDS011;9974;52.146;14.668;2022-10-22T00:00:16;24.98;;;15.48;;
19651;SDS011;9974;52.146;14.668;2022-10-22T00:02:43;21.20;;;16.20;;
19651;SDS011;9974;52.146;14.668;2022-10-22T00:05:09;20.55;;;15.65;;
19651;SDS011;9974;52.146;14.668;2022-10-22T00:07:35;21.80;;;15.98;;
19651;SDS011;9974;52.146;14.668;2022-10-22T00:10:01;20.50;;;15.70;;
19651;SDS011;9974;52.146;14.668;2022-10-22T00:12:29;21.40;;;14.70;;
19651;SDS011;9974;52.146;14.668;2022-10-22T00:14:55;21.73;;;16.73;;
19651;SDS011;9974;52.146;14.668;2022-10-22T00:17:21;23.90;;;16.30;;
19651;SDS011;9974;52.146;14.668;2022-10-22T00:19:47;20.50;;;15.25;;
19651;SDS011;9974;52.146;14.668;2022-10-22T00:22:13;22.92;;;16.85;;
19651;SDS011;9974;52.146;14.668;2022-10-22T00:24:40;21.33;;;15.38;;
19651;SDS011;9974;52.146;14.668;2022-10-22T00:27:07;22.67;;;15.48;;
19651;SDS011;9974;52.146;14.668;2022-10-22T00:29:34;22.95;;;16.30;;
19651;SDS011;9974;52.146;14.668;2022-10-22T00:32:00;24.52;;;17.17;;
19651;SDS011;9974;52.146;14.668;2022-10-22T00:34:27;20.52;;;15.20;;
19651;SDS011;9974;52.146;14.668;2022-10-22T00:36:53;22.40;;;17.52;;
19651;SDS011;9974;52.146;14.668;2022-10-22T00:39:19;21.45;;;15.13;;
19651;SDS011;9974;52.146;14.668;2022-10-22T00:41:47;21.27;;;15.38;;
19651;SDS011;9974;52.146;14.668;2022-10-22T00:47:53;21.90;;;16.15;;
19651;SDS011;9974;52.146;14.668;2022-10-22T00:52:59;20.67;;;15.77;;
19651;SDS011;9974;52.146;14.668;2022-10-22T00:55:26;20.35;;;15.05;;
19651;SDS011;9974;52.146;14.668;2022-10-22T00:57:54;19.00;;;14.35;;
19651;SDS011;9974;52.146;14.668;2022-10-22T01:00:21;21.60;;;15.90;;
19651;SDS011;9974;52.146;14.668;2022-10-22T01:02:48;23.08;;;15.75;;
19651;SDS011;9974;52.146;14.668;2022-10-22T01:05:15;20.63;;;16.17;;
19651;SDS011;9974;52.146;14.668;2022-10-22T01:07:44;22.08;;;15.80;;
19651;SDS011;9974;52.146;14.668;2022-10-22T01:10:17;24.90;;;16.40;;
19651;SDS011;9974;52.146;14.668;2022-10-22T01:15:23;24.50;;;16.52;;
19651;SDS011;9974;52.146;14.668;2022-10-22T01:18:04;23.65;;;15.75;;
19651;SDS011;9974;52.146;14.668;2022-10-22T01:31:32;19.60;;;14.38;;
19651;SDS011;9974;52.146;14.668;2022-10-22T01:34:05;18.08;;;13.65;;
19651;SDS011;9974;52.146;14.668;2022-10-22T01:36:33;20.80;;;15.93;;
19651;SDS011;9974;52.146;14.668;2022-10-22T01:39:01;22.48;;;15.82;;
19651;SDS011;9974;52.146;14.668;2022-10-22T01:41:28;21.60;;;14.85;;
19651;SDS011;9974;52.146;14.668;2022-10-22T01:43:54;21.98;;;14.60;;
19651;SDS011;9974;52.146;14.668;2022-10-22T01:46:21;20.45;;;13.85;;
19651;SDS011;9974;52.146;14.668;2022-10-22T01:48:59;19.58;;;14.35;;
19651;SDS011;9974;52.146;14.668;2022-10-22T01:54:51;17.35;;;13.43;;
19651;SDS011;9974;52.146;14.668;2022-10-22T02:00:46;23.33;;;13.55;;
19651;SDS011;9974;52.146;14.668;2022-10-22T02:03:26;21.23;;;14.13;;
19651;SDS011;9974;52.146;14.668;2022-10-22T02:06:00;18.25;;;14.23;;
19651;SDS011;9974;52.146;14.668;2022-10-22T02:08:31;20.92;;;14.43;;
19651;SDS011;9974;52.146;14.668;2022-10-22T02:10:59;21.27;;;14.38;;
19651;SDS011;9974;52.146;14.668;2022-10-22T02:13:27;21.95;;;15.48;;
19651;SDS011;9974;52.146;14.668;2022-10-22T02:16:20;20.73;;;15.68;;
19651;SDS011;9974;52.146;14.668;2022-10-22T02:18:57;19.42;;;14.63;;
19651;SDS011;9974;52.146;14.668;2022-10-22T02:21:31;21.30;;;15.13;;
19651;SDS011;9974;52.146;14.668;2022-10-22T02:23:57;19.95;;;15.07;;
19651;SDS011;9974;52.146;14.668;2022-10-22T02:26:39;23.13;;;15.80;;
19651;SDS011;9974;52.146;14.668;2022-10-22T02:29:35;19.58;;;14.02;;
19651;SDS011;9974;52.146;14.668;2022-10-22T02:32:09;18.33;;;14.90;;
19651;SDS011;9974;52.146;14.668;2022-10-22T02:34:40;19.70;;;13.88;;
19651;SDS011;9974;52.146;14.668;2022-10-22T02:37:06;24.13;;;15.95;;
19651;SDS011;9974;52.146;14.668;2022-10-22T02:39:33;23.63;;;15.30;;
19651;SDS011;9974;52.146;14.668;2022-10-22T02:42:01;18.00;;;15.02;;
19651;SDS011;9974;52.146;14.668;2022-10-22T02:44:27;33.22;;;21.75;;
19651;SDS011;9974;52.146;14.668;2022-10-22T02:46:52;72.03;;;38.60;;
19651;SDS011;9974;52.146;14.668;2022-10-22T02:49:18;83.43;;;44.33;;
19651;SDS011;9974;52.146;14.668;2022-10-22T02:51:44;58.70;;;33.22;;
19651;SDS011;9974;52.146;14.668;2022-10-22T02:54:10;27.08;;;19.92;;
19651;SDS011;9974;52.146;14.668;2022-10-22T02:56:36;21.67;;;16.63;;
19651;SDS011;9974;52.146;14.668;2022-10-22T02:59:02;16.98;;;14.38;;
19651;SDS011;9974;52.146;14.668;2022-10-22T03:01:28;18.17;;;13.88;;
19651;SDS011;9974;52.146;14.668;2022-10-22T03:03:54;16.30;;;12.73;;
19651;SDS011;9974;52.146;14.668;2022-10-22T03:06:20;17.33;;;12.95;;
19651;SDS011;9974;52.146;14.668;2022-10-22T03:08:46;16.73;;;12.40;;
19651;SDS011;9974;52.146;14.668;2022-10-22T03:11:12;17.55;;;12.23;;
19651;SDS011;9974;52.146;14.668;2022-10-22T03:13:38;14.75;;;12.13;;
19651;SDS011;9974;52.146;14.668;2022-10-22T03:16:04;15.82;;;12.45;;
19651;SDS011;9974;52.146;14.668;2022-10-22T03:18:30;14.32;;;12.05;;
19651;SDS011;9974;52.146;14.668;2022-10-22T03:20:59;17.13;;;11.27;;
19651;SDS011;9974;52.146;14.668;2022-10-22T03:23:56;15.30;;;11.35;;
19651;SDS011;9974;52.146;14.668;2022-10-22T03:26:23;15.13;;;11.27;;
19651;SDS011;9974;52.146;14.668;2022-10-22T03:28:49;14.70;;;11.55;;
19651;SDS011;9974;52.146;14.668;2022-10-22T03:31:15;16.23;;;11.70;;
19651;SDS011;9974;52.146;14.668;2022-10-22T03:33:41;16.88;;;11.35;;
19651;SDS011;9974;52.146;14.668;2022-10-22T03:36:07;18.65;;;11.20;;
19651;SDS011;9974;52.146;14.668;2022-10-22T03:38:34;16.42;;;12.30;;
19651;SDS011;9974;52.146;14.668;2022-10-22T03:41:01;16.50;;;11.60;;
19651;SDS011;9974;52.146;14.668;2022-10-22T03:43:27;17.15;;;12.02;;
19651;SDS011;9974;52.146;14.668;2022-10-22T03:45:53;23.67;;;14.02;;
19651;SDS011;9974;52.146;14.668;2022-10-22T03:48:19;21.45;;;13.15;;
19651;SDS011;9974;52.146;14.668;2022-10-22T03:50:45;16.98;;;12.90;;
19651;SDS011;9974;52.146;14.668;2022-10-22T03:53:11;22.80;;;13.02;;
19651;SDS011;9974;52.146;14.668;2022-10-22T03:55:39;16.90;;;12.75;;
19651;SDS011;9974;52.146;14.668;2022-10-22T03:58:05;16.35;;;11.88;;
19651;SDS011;9974;52.146;14.668;2022-10-22T04:00:32;16.65;;;12.27;;
19651;SDS011;9974;52.146;14.668;2022-10-22T04:02:59;14.27;;;11.13;;
19651;SDS011;9974;52.146;14.668;2022-10-22T04:05:25;17.00;;;12.23;;
19651;SDS011;9974;52.146;14.668;2022-10-22T04:07:51;16.52;;;11.80;;
19651;SDS011;9974;52.146;14.668;2022-10-22T04:10:17;15.77;;;11.45;;
19651;SDS011;9974;52.146;14.668;2022-10-22T04:12:45;16.92;;;12.20;;
19651;SDS011;9974;52.146;14.668;2022-10-22T04:15:12;15.27;;;11.65;;
19651;SDS011;9974;52.146;14.668;2022-10-22T04:17:38;15.02;;;11.68;;
19651;SDS011;9974;52.146;14.668;2022-10-22T04:20:04;17.77;;;11.65;;
19651;SDS011;9974;52.146;14.668;2022-10-22T04:22:34;17.40;;;12.55;;
19651;SDS011;9974;52.146;14.668;2022-10-22T04:25:00;16.65;;;12.40;;
19651;SDS011;9974;52.146;14.668;2022-10-22T04:27:31;18.35;;;13.13;;
19651;SDS011;9974;52.146;14.668;2022-10-22T04:29:58;17.90;;;13.68;;
19651;SDS011;9974;52.146;14.668;2022-10-22T04:32:24;19.27;;;13.50;;
19651;SDS011;9974;52.146;14.668;2022-10-22T04:34:51;18.85;;;13.52;;
19651;SDS011;9974;52.146;14.668;2022-10-22T04:37:16;19.30;;;12.57;;
19651;SDS011;9974;52.146;14.668;2022-10-22T04:39:42;22.92;;;13.52;;
19651;SDS011;9974;52.146;14.668;2022-10-22T04:42:09;21.20;;;13.65;;
19651;SDS011;9974;52.146;14.668;2022-10-22T04:44:35;16.17;;;12.93;;
19651;SDS011;9974;52.146;14.668;2022-10-22T04:47:01;18.20;;;13.23;;
19651;SDS011;9974;52.146;14.668;2022-10-22T04:49:27;18.20;;;12.98;;
19651;SDS011;9974;52.146;14.668;2022-10-22T04:51:53;17.15;;;12.45;;
19651;SDS011;9974;52.146;14.668;2022-10-22T04:54:19;16.23;;;12.15;;
19651;SDS011;9974;52.146;14.668;2022-10-22T04:56:46;15.73;;;11.70;;
19651;SDS011;9974;52.146;14.668;2022-10-22T04:59:12;14.73;;;11.35;;
19651;SDS011;9974;52.146;14.668;2022-10-22T05:01:39;17.60;;;11.73;;
19651;SDS011;9974;52.146;14.668;2022-10-22T05:04:07;19.20;;;11.13;;
19651;SDS011;9974;52.146;14.668;2022-10-22T05:06:36;18.65;;;12.00;;
19651;SDS011;9974;52.146;14.668;2022-10-22T05:09:04;14.00;;;11.15;;
19651;SDS011;9974;52.146;14.668;2022-10-22T05:11:33;16.58;;;11.00;;
19651;SDS011;9974;52.146;14.668;2022-10-22T05:14:02;15.20;;;11.02;;
19651;SDS011;9974;52.146;14.668;2022-10-22T05:16:29;14.65;;;10.68;;
19651;SDS011;9974;52.146;14.668;2022-10-22T05:18:57;14.80;;;10.75;;
19651;SDS011;9974;52.146;14.668;2022-10-22T05:21:23;14.27;;;10.57;;
19651;SDS011;9974;52.146;14.668;2022-10-22T05:23:49;15.52;;;11.55;;
19651;SDS011;9974;52.146;14.668;2022-10-22T05:26:17;16.25;;;11.82;;
19651;SDS011;9974;52.146;14.668;2022-10-22T05:28:48;19.00;;;12.52;;
19651;SDS011;9974;52.146;14.668;2022-10-22T05:31:14;18.73;;;11.68;;
19651;SDS011;9974;52.146;14.668;2022-10-22T05:33:41;21.77;;;11.57;;
19651;SDS011;9974;52.146;14.668;2022-10-22T05:36:08;14.02;;;11.00;;
19651;SDS011;9974;52.146;14.668;2022-10-22T05:38:37;15.57;;;11.32;;
19651;SDS011;9974;52.146;14.668;2022-10-22T05:41:07;14.75;;;11.68;;
19651;SDS011;9974;52.146;14.668;2022-10-22T05:43:35;16.75;;;11.65;;
19651;SDS011;9974;52.146;14.668;2022-10-22T05:46:02;16.73;;;11.13;;
19651;SDS011;9974;52.146;14.668;2022-10-22T05:48:31;17.55;;;11.25;;
19651;SDS011;9974;52.146;14.668;2022-10-22T05:51:00;18.58;;;11.90;;
19651;SDS011;9974;52.146;14.668;2022-10-22T05:53:29;14.98;;;10.70;;
19651;SDS011;9974;52.146;14.668;2022-10-22T05:56:04;18.75;;;11.70;;
19651;SDS011;9974;52.146;14.668;2022-10-22T05:58:33;16.42;;;12.70;;
19651;SDS011;9974;52.146;14.668;2022-10-22T06:01:01;17.02;;;11.40;;
19651;SDS011;9974;52.146;14.668;2022-10-22T06:03:32;17.02;;;12.55;;
19651;SDS011;9974;52.146;14.668;2022-10-22T06:05:59;15.93;;;11.20;;
19651;SDS011;9974;52.146;14.668;2022-10-22T06:08:27;15.48;;;11.48;;
19651;SDS011;9974;52.146;14.668;2022-10-22T06:10:53;14.25;;;11.02;;
19651;SDS011;9974;52.146;14.668;2022-10-22T06:13:19;15.68;;;11.45;;
19651;SDS011;9974;52.146;14.668;2022-10-22T06:15:45;23.98;;;17.23;;
19651;SDS011;9974;52.146;14.668;2022-10-22T06:18:10;17.65;;;12.20;;
19651;SDS011;9974;52.146;14.668;2022-10-22T06:20:36;18.65;;;12.82;;
19651;SDS011;9974;52.146;14.668;2022-10-22T06:23:02;18.05;;;11.68;;
19651;SDS011;9974;52.146;14.668;2022-10-22T06:25:29;15.45;;;11.63;;
19651;SDS011;9974;52.146;14.668;2022-10-22T06:27:54;19.75;;;11.95;;
19651;SDS011;9974;52.146;14.668;2022-10-22T06:30:20;20.45;;;14.05;;
19651;SDS011;9974;52.146;14.668;2022-10-22T06:32:46;17.42;;;13.18;;
19651;SDS011;9974;52.146;14.668;2022-10-22T06:35:12;25.25;;;14.30;;
19651;SDS011;9974;52.146;14.668;2022-10-22T06:37:38;21.98;;;14.95;;
19651;SDS011;9974;52.146;14.668;2022-10-22T06:40:04;17.55;;;13.80;;
19651;SDS011;9974;52.146;14.668;2022-10-22T06:42:30;19.30;;;13.25;;
19651;SDS011;9974;52.146;14.668;2022-10-22T06:44:56;25.75;;;15.25;;
19651;SDS011;9974;52.146;14.668;2022-10-22T06:47:22;22.00;;;15.18;;
19651;SDS011;9974;52.146;14.668;2022-10-22T06:49:48;19.52;;;13.88;;
19651;SDS011;9974;52.146;14.668;2022-10-22T06:52:14;21.38;;;14.55;;
19651;SDS011;9974;52.146;14.668;2022-10-22T06:54:41;21.30;;;14.48;;
19651;SDS011;9974;52.146;14.668;2022-10-22T06:57:07;21.35;;;14.30;;
19651;SDS011;9974;52.146;14.668;2022-10-22T06:59:33;17.33;;;13.20;;
19651;SDS011;9974;52.146;14.668;2022-10-22T07:01:59;24.95;;;14.77;;
19651;SDS011;9974;52.146;14.668;2022-10-22T07:04:25;42.65;;;24.50;;
19651;SDS011;9974;52.146;14.668;2022-10-22T07:06:53;24.48;;;19.17;;
19651;SDS011;9974;52.146;14.668;2022-10-22T07:09:20;23.02;;;15.95;;
19651;SDS011;9974;52.146;14.668;2022-10-22T07:11:46;21.23;;;16.10;;
19651;SDS011;9974;52.146;14.668;2022-10-22T07:14:12;19.40;;;14.35;;
19651;SDS011;9974;52.146;14.668;2022-10-22T07:16:38;18.13;;;13.68;;
19651;SDS011;9974;52.146;14.668;2022-10-22T07:19:09;17.27;;;12.02;;
19651;SDS011;9974;52.146;14.668;2022-10-22T07:21:35;19.48;;;14.45;;
19651;SDS011;9974;52.146;14.668;2022-10-22T07:24:01;18.40;;;14.68;;
19651;SDS011;9974;52.146;14.668;2022-10-22T07:26:28;18.98;;;12.90;;
19651;SDS011;9974;52.146;14.668;2022-10-22T07:28:56;17.48;;;13.05;;
19651;SDS011;9974;52.146;14.668;2022-10-22T07:31:23;18.88;;;13.38;;
19651;SDS011;9974;52.146;14.668;2022-10-22T07:33:49;18.63;;;12.75;;
19651;SDS011;9974;52.146;14.668;2022-10-22T07:36:15;18.92;;;13.23;;
19651;SDS011;9974;52.146;14.668;2022-10-22T07:38:48;17.52;;;12.55;;
19651;SDS011;9974;52.146;14.668;2022-10-22T07:41:20;17.35;;;12.65;;
19651;SDS011;9974;52.146;14.668;2022-10-22T07:43:47;18.52;;;13.60;;
19651;SDS011;9974;52.146;14.668;2022-10-22T07:46:13;18.27;;;14.32;;
19651;SDS011;9974;52.146;14.668;2022-10-22T07:48:39;20.23;;;14.00;;
19651;SDS011;9974;52.146;14.668;2022-10-22T07:51:05;23.38;;;15.38;;
19651;SDS011;9974;52.146;14.668;2022-10-22T07:53:32;24.25;;;15.70;;
19651;SDS011;9974;52.146;14.668;2022-10-22T07:55:58;26.77;;;15.82;;
19651;SDS011;9974;52.146;14.668;2022-10-22T07:58:24;21.40;;;15.30;;
19651;SDS011;9974;52.146;14.668;2022-10-22T08:00:53;23.95;;;14.70;;
19651;SDS011;9974;52.146;14.668;2022-10-22T08:03:20;22.60;;;14.38;;
19651;SDS011;9974;52.146;14.668;2022-10-22T08:05:46;24.50;;;14.13;;
19651;SDS011;9974;52.146;14.668;2022-10-22T08:08:13;17.30;;;12.80;;
19651;SDS011;9974;52.146;14.668;2022-10-22T08:10:40;21.52;;;15.32;;
19651;SDS011;9974;52.146;14.668;2022-10-22T08:13:06;24.33;;;15.07;;
19651;SDS011;9974;52.146;14.668;2022-10-22T08:15:33;19.55;;;13.73;;
19651;SDS011;9974;52.146;14.668;2022-10-22T08:17:59;23.48;;;15.52;;
19651;SDS011;9974;52.146;14.668;2022-10-22T08:20:25;23.67;;;14.00;;
19651;SDS011;9974;52.146;14.668;2022-10-22T08:22:51;18.90;;;13.38;;
19651;SDS011;9974;52.146;14.668;2022-10-22T08:25:17;21.48;;;14.20;;
19651;SDS011;9974;52.146;14.668;2022-10-22T08:27:44;20.48;;;14.88;;
19651;SDS011;9974;52.146;14.668;2022-10-22T08:30:10;21.30;;;14.85;;
19651;SDS011;9974;52.146;14.668;2022-10-22T08:32:36;22.85;;;15.77;;
19651;SDS011;9974;52.146;14.668;2022-10-22T08:35:02;25.33;;;15.73;;
19651;SDS011;9974;52.146;14.668;2022-10-22T08:37:28;24.55;;;17.23;;
19651;SDS011;9974;52.146;14.668;2022-10-22T08:39:54;23.70;;;15.98;;
19651;SDS011;9974;52.146;14.668;2022-10-22T08:45:30;25.20;;;16.42;;
19651;SDS011;9974;52.146;14.668;2022-10-22T08:48:15;22.15;;;16.00;;
19651;SDS011;9974;52.146;14.668;2022-10-22T08:51:19;26.33;;;17.33;;
19651;SDS011;9974;52.146;14.668;2022-10-22T08:54:04;30.83;;;16.67;;
19651;SDS011;9974;52.146;14.668;2022-10-22T08:57:05;28.08;;;18.05;;
19651;SDS011;9974;52.146;14.668;2022-10-22T09:02:45;24.27;;;14.52;;
19651;SDS011;9974;52.146;14.668;2022-10-22T09:08:39;22.30;;;15.13;;
19651;SDS011;9974;52.146;14.668;2022-10-22T09:14:00;23.67;;;15.75;;
19651;SDS011;9974;52.146;14.668;2022-10-22T09:19:32;25.50;;;16.30;;
19651;SDS011;9974;52.146;14.668;2022-10-22T09:22:32;23.58;;;15.40;;
19651;SDS011;9974;52.146;14.668;2022-10-22T09:25:25;19.42;;;15.13;;
19651;SDS011;9974;52.146;14.668;2022-10-22T09:27:52;27.52;;;20.17;;
19651;SDS011;9974;52.146;14.668;2022-10-22T09:30:24;27.50;;;18.48;;
19651;SDS011;9974;52.146;14.668;2022-10-22T09:33:05;29.23;;;19.42;;
19651;SDS011;9974;52.146;14.668;2022-10-22T09:35:46;32.97;;;18.45;;
19651;SDS011;9974;52.146;14.668;2022-10-22T09:38:20;21.48;;;16.70;;
19651;SDS011;9974;52.146;14.668;2022-10-22T09:40:52;18.73;;;13.35;;
19651;SDS011;9974;52.146;14.668;2022-10-22T09:43:20;20.95;;;14.40;;
19651;SDS011;9974;52.146;14.668;2022-10-22T09:45:46;21.92;;;14.57;;
19651;SDS011;9974;52.146;14.668;2022-10-22T09:53:38;20.98;;;16.33;;
19651;SDS011;9974;52.146;14.668;2022-10-22T09:56:12;27.02;;;17.08;;
19651;SDS011;9974;52.146;14.668;2022-10-22T09:58:55;21.88;;;16.48;;
19651;SDS011;9974;52.146;14.668;2022-10-22T10:01:26;17.00;;;14.50;;
19651;SDS011;9974;52.146;14.668;2022-10-22T10:04:04;20.48;;;14.50;;
19651;SDS011;9974;52.146;14.668;2022-10-22T10:06:36;22.85;;;14.55;;
19651;SDS011;9974;52.146;14.668;2022-10-22T10:09:08;19.35;;;14.57;;
19651;SDS011;9974;52.146;14.668;2022-10-22T10:17:22;21.05;;;15.23;;
19651;SDS011;9974;52.146;14.668;2022-10-22T10:22:39;19.67;;;13.63;;
19651;SDS011;9974;52.146;14.668;2022-10-22T10:28:11;18.52;;;14.95;;
19651;SDS011;9974;52.146;14.668;2022-10-22T10:31:16;19.60;;;15.27;;
19651;SDS011;9974;52.146;14.668;2022-10-22T10:34:03;23.40;;;19.48;;
19651;SDS011;9974;52.146;14.668;2022-10-22T10:40:03;21.50;;;15.98;;
19651;SDS011;9974;52.146;14.668;2022-10-22T10:42:52;20.90;;;15.18;;
19651;SDS011;9974;52.146;14.668;2022-10-22T10:45:28;24.52;;;16.80;;
19651;SDS011;9974;52.146;14.668;2022-10-22T10:48:27;25.60;;;17.33;;
19651;SDS011;9974;52.146;14.668;2022-10-22T10:51:30;22.40;;;14.90;;
19651;SDS011;9974;52.146;14.668;2022-10-22T10:56:53;19.13;;;13.48;;
19651;SDS011;9974;52.146;14.668;2022-10-22T10:59:44;18.70;;;14.50;;
19651;SDS011;9974;52.146;14.668;2022-10-22T11:02:38;20.95;;;13.63;;
19651;SDS011;9974;52.146;14.668;2022-10-22T11:08:21;18.00;;;13.77;;
19651;SDS011;9974;52.146;14.668;2022-10-22T11:11:01;17.50;;;13.00;;
19651;SDS011;9974;52.146;14.668;2022-10-22T11:13:37;18.52;;;13.88;;
19651;SDS011;9974;52.146;14.668;2022-10-22T11:22:22;16.92;;;11.70;;
19651;SDS011;9974;52.146;14.668;2022-10-22T11:27:45;17.08;;;13.00;;
19651;SDS011;9974;52.146;14.668;2022-10-22T11:30:28;19.13;;;13.48;;
19651;SDS011;9974;52.146;14.668;2022-10-22T11:33:03;17.58;;;12.93;;
19651;SDS011;9974;52.146;14.668;2022-10-22T11:35:32;17.30;;;12.43;;
19651;SDS011;9974;52.146;14.668;2022-10-22T11:38:01;16.48;;;13.50;;
19651;SDS011;9974;52.146;14.668;2022-10-22T11:40:31;19.02;;;13.00;;
19651;SDS011;9974;52.146;14.668;2022-10-22T11:43:08;17.60;;;14.70;;
19651;SDS011;9974;52.146;14.668;2022-10-22T11:45:53;16.65;;;13.50;;
19651;SDS011;9974;52.146;14.668;2022-10-22T11:48:39;15.85;;;12.13;;
19651;SDS011;9974;52.146;14.668;2022-10-22T11:53:56;13.35;;;10.13;;
19651;SDS011;9974;52.146;14.668;2022-10-22T11:56:26;13.13;;;9.68;;
19651;SDS011;9974;52.146;14.668;2022-10-22T11:59:01;11.43;;;9.75;;
19651;SDS011;9974;52.146;14.668;2022-10-22T12:01:29;11.50;;;9.13;;
19651;SDS011;9974;52.146;14.668;2022-10-22T12:04:16;11.00;;;8.70;;
19651;SDS011;9974;52.146;14.668;2022-10-22T12:06:53;14.27;;;9.70;;
19651;SDS011;9974;52.146;14.668;2022-10-22T12:09:25;13.32;;;9.88;;
19651;SDS011;9974;52.146;14.668;2022-10-22T12:11:54;13.38;;;10.68;;
19651;SDS011;9974;52.146;14.668;2022-10-22T12:14:33;13.00;;;9.90;;
19651;SDS011;9974;52.146;14.668;2022-10-22T12:17:15;13.77;;;10.40;;
19651;SDS011;9974;52.146;14.668;2022-10-22T12:19:46;12.60;;;9.20;;
19651;SDS011;9974;52.146;14.668;2022-10-22T12:22:20;12.65;;;10.13;;
19651;SDS011;9974;52.146;14.668;2022-10-22T12:24:50;10.50;;;8.82;;
19651;SDS011;9974;52.146;14.668;2022-10-22T12:27:22;10.55;;;9.18;;
19651;SDS011;9974;52.146;14.668;2022-10-22T12:29:59;15.57;;;9.48;;
19651;SDS011;9974;52.146;14.668;2022-10-22T12:32:36;11.60;;;9.07;;
19651;SDS011;9974;52.146;14.668;2022-10-22T12:35:06;13.32;;;8.93;;
19651;SDS011;9974;52.146;14.668;2022-10-22T12:37:40;11.25;;;9.30;;
19651;SDS011;9974;52.146;14.668;2022-10-22T12:40:14;14.73;;;9.13;;
19651;SDS011;9974;52.146;14.668;2022-10-22T12:42:53;11.93;;;8.73;;
19651;SDS011;9974;52.146;14.668;2022-10-22T12:45:26;14.52;;;10.68;;
19651;SDS011;9974;52.146;14.668;2022-10-22T12:47:55;12.40;;;10.40;;
19651;SDS011;9974;52.146;14.668;2022-10-22T12:50:30;11.55;;;8.77;;
19651;SDS011;9974;52.146;14.668;2022-10-22T12:53:12;16.05;;;9.68;;
19651;SDS011;9974;52.146;14.668;2022-10-22T12:55:48;13.68;;;9.27;;
19651;SDS011;9974;52.146;14.668;2022-10-22T12:58:17;12.98;;;8.30;;
19651;SDS011;9974;52.146;14.668;2022-10-22T13:00:46;10.48;;;8.32;;
19651;SDS011;9974;52.146;14.668;2022-10-22T13:03:29;12.02;;;8.55;;
19651;SDS011;9974;52.146;14.668;2022-10-22T13:11:30;10.80;;;7.78;;
19651;SDS011;9974;52.146;14.668;2022-10-22T13:14:21;9.43;;;7.78;;
19651;SDS011;9974;52.146;14.668;2022-10-22T13:17:02;13.57;;;8.95;;
19651;SDS011;9974;52.146;14.668;2022-10-22T13:19:58;11.88;;;8.32;;
19651;SDS011;9974;52.146;14.668;2022-10-22T13:22:36;11.23;;;9.07;;
19651;SDS011;9974;52.146;14.668;2022-10-22T13:27:43;14.02;;;8.50;;
19651;SDS011;9974;52.146;14.668;2022-10-22T13:30:18;11.68;;;10.32;;
19651;SDS011;9974;52.146;14.668;2022-10-22T13:32:52;13.77;;;9.93;;
19651;SDS011;9974;52.146;14.668;2022-10-22T13:35:45;13.43;;;8.93;;
19651;SDS011;9974;52.146;14.668;2022-10-22T13:38:12;11.98;;;9.75;;
19651;SDS011;9974;52.146;14.668;2022-10-22T13:40:42;15.65;;;10.13;;
19651;SDS011;9974;52.146;14.668;2022-10-22T13:43:08;12.65;;;9.48;;
19651;SDS011;9974;52.146;14.668;2022-10-22T13:45:34;12.65;;;9.20;;
19651;SDS011;9974;52.146;14.668;2022-10-22T13:48:00;11.73;;;9.48;;
19651;SDS011;9974;52.146;14.668;2022-10-22T13:50:27;18.35;;;10.43;;
19651;SDS011;9974;52.146;14.668;2022-10-22T13:52:54;15.35;;;10.57;;
19651;SDS011;9974;52.146;14.668;2022-10-22T13:55:25;10.98;;;9.88;;
19651;SDS011;9974;52.146;14.668;2022-10-22T13:58:02;13.10;;;8.40;;
19651;SDS011;9974;52.146;14.668;2022-10-22T14:00:36;13.77;;;9.27;;
19651;SDS011;9974;52.146;14.668;2022-10-22T14:03:03;10.32;;;8.82;;
19651;SDS011;9974;52.146;14.668;2022-10-22T14:05:29;12.05;;;8.90;;
19651;SDS011;9974;52.146;14.668;2022-10-22T14:07:58;14.85;;;9.18;;
19651;SDS011;9974;52.146;14.668;2022-10-22T14:10:24;12.20;;;9.95;;
19651;SDS011;9974;52.146;14.668;2022-10-22T14:12:50;17.92;;;10.20;;
19651;SDS011;9974;52.146;14.668;2022-10-22T14:15:18;12.63;;;8.98;;
19651;SDS011;9974;52.146;14.668;2022-10-22T14:17:47;9.95;;;8.50;;
19651;SDS011;9974;52.146;14.668;2022-10-22T14:20:20;11.25;;;9.80;;
19651;SDS011;9974;52.146;14.668;2022-10-22T14:22:48;13.35;;;9.30;;
19651;SDS011;9974;52.146;14.668;2022-10-22T14:25:15;9.77;;;8.20;;
19651;SDS011;9974;52.146;14.668;2022-10-22T14:27:44;12.38;;;9.48;;
19651;SDS011;9974;52.146;14.668;2022-10-22T14:30:14;11.18;;;8.35;;
19651;SDS011;9974;52.146;14.668;2022-10-22T14:32:43;10.90;;;9.02;;
19651;SDS011;9974;52.146;14.668;2022-10-22T14:35:14;12.50;;;8.52;;
19651;SDS011;9974;52.146;14.668;2022-10-22T14:37:42;10.75;;;9.63;;
19651;SDS011;9974;52.146;14.668;2022-10-22T14:40:10;12.82;;;10.27;;
19651;SDS011;9974;52.146;14.668;2022-10-22T14:42:40;18.85;;;16.90;;
19651;SDS011;9974;52.146;14.668;2022-10-22T14:45:13;14.32;;;12.20;;
19651;SDS011;9974;52.146;14.668;2022-10-22T14:47:45;13.85;;;11.43;;
19651;SDS011;9974;52.146;14.668;2022-10-22T14:50:12;9.88;;;8.10;;
19651;SDS011;9974;52.146;14.668;2022-10-22T14:52:38;13.65;;;8.38;;
19651;SDS011;9974;52.146;14.668;2022-10-22T14:55:07;13.43;;;11.30;;
19651;SDS011;9974;52.146;14.668;2022-10-22T14:57:38;24.88;;;21.73;;
19651;SDS011;9974;52.146;14.668;2022-10-22T15:00:04;13.38;;;9.43;;
19651;SDS011;9974;52.146;14.668;2022-10-22T15:02:35;10.65;;;9.18;;
19651;SDS011;9974;52.146;14.668;2022-10-22T15:05:02;11.48;;;8.20;;
19651;SDS011;9974;52.146;14.668;2022-10-22T15:07:28;8.77;;;7.82;;
19651;SDS011;9974;52.146;14.668;2022-10-22T15:09:54;10.85;;;7.88;;
19651;SDS011;9974;52.146;14.668;2022-10-22T15:12:20;9.40;;;8.15;;
19651;SDS011;9974;52.146;14.668;2022-10-22T15:14:46;20.20;;;9.00;;
19651;SDS011;9974;52.146;14.668;2022-10-22T15:17:13;12.23;;;9.27;;
19651;SDS011;9974;52.146;14.668;2022-10-22T15:19:39;12.05;;;7.80;;
19651;SDS011;9974;52.146;14.668;2022-10-22T15:22:07;11.48;;;8.68;;
19651;SDS011;9974;52.146;14.668;2022-10-22T15:24:34;10.55;;;8.43;;
19651;SDS011;9974;52.146;14.668;2022-10-22T15:26:59;8.30;;;7.32;;
19651;SDS011;9974;52.146;14.668;2022-10-22T15:29:27;10.52;;;9.25;;
19651;SDS011;9974;52.146;14.668;2022-10-22T15:31:55;12.73;;;9.05;;
19651;SDS011;9974;52.146;14.668;2022-10-22T15:34:31;11.32;;;9.35;;
19651;SDS011;9974;52.146;14.668;2022-10-22T15:37:00;11.13;;;9.82;;
19651;SDS011;9974;52.146;14.668;2022-10-22T15:39:28;10.20;;;8.57;;
19651;SDS011;9974;52.146;14.668;2022-10-22T15:41:54;11.45;;;8.00;;
19651;SDS011;9974;52.146;14.668;2022-10-22T15:44:21;12.27;;;8.63;;
19651;SDS011;9974;52.146;14.668;2022-10-22T15:46:50;13.90;;;9.20;;
19651;SDS011;9974;52.146;14.668;2022-10-22T15:49:18;12.48;;;9.73;;
19651;SDS011;9974;52.146;14.668;2022-10-22T15:51:45;13.57;;;10.00;;
19651;SDS011;9974;52.146;14.668;2022-10-22T15:54:12;16.08;;;9.05;;
19651;SDS011;9974;52.146;14.668;2022-10-22T15:56:40;11.95;;;10.15;;
19651;SDS011;9974;52.146;14.668;2022-10-22T15:59:09;15.45;;;10.30;;
19651;SDS011;9974;52.146;14.668;2022-10-22T16:01:36;15.55;;;12.32;;
19651;SDS011;9974;52.146;14.668;2022-10-22T16:04:03;17.60;;;10.82;;
19651;SDS011;9974;52.146;14.668;2022-10-22T16:09:03;189.73;;;32.08;;
19651;SDS011;9974;52.146;14.668;2022-10-22T16:11:34;102.18;;;21.27;;